Time;durP1;ratioP1;P1;durP2;ratioP2;P2;SDS_P1;SDS_P2;PMS_P1;PMS_P2;Temp;Humidity;BMP_temperature;BMP_pressure;BME280_temperature;BME280_humidity;BME280_pressure;Samples;Min_cycle;Max_cycle;Signal;HPM_P1;HPM_P2
2022/06/12 00:01:01;;;;;;;0.10;0.10;;;;;;;;;;5061774;28;20265;-64
2022/06/12 00:03:28;;;;;;;0.08;0.08;;;;;;;;;;5074136;28;20427;-64
2022/06/12 00:05:55;;;;;;;2.22;2.15;;;;;;;;;;5061270;28;20422;-65
2022/06/12 00:08:22;;;;;;;0.00;0.00;;;;;;;;;;5074246;28;20204;-65
2022/06/12 00:10:49;;;;;;;0.00;0.00;;;;;;;;;;5060859;28;20561;-65
2022/06/12 00:13:18;;;;;;;0.00;0.00;;;;;;;;;;5074867;28;20295;-65
2022/06/12 00:15:44;;;;;;;0.00;0.00;;;;;;;;;;5058664;28;20243;-66
2022/06/12 00:18:12;;;;;;;0.00;0.00;;;;;;;;;;5076373;28;20206;-66
2022/06/12 00:20:39;;;;;;;0.00;0.00;;;;;;;;;;5058800;28;20237;-65
2022/06/12 00:23:07;;;;;;;0.00;0.00;;;;;;;;;;5075150;28;20354;-65
2022/06/12 00:25:33;;;;;;;0.00;0.00;;;;;;;;;;5058203;28;20251;-65
2022/06/12 00:27:59;;;;;;;0.00;0.00;;;;;;;;;;5076396;28;20235;-65
2022/06/12 00:30:26;;;;;;;0.00;0.00;;;;;;;;;;5057506;28;20249;-63
2022/06/12 00:32:54;;;;;;;0.00;0.00;;;;;;;;;;5077266;28;20415;-63
2022/06/12 00:35:23;;;;;;;0.10;0.10;;;;;;;;;;5056578;28;20241;-63
2022/06/12 00:37:50;;;;;;;0.00;0.00;;;;;;;;;;5077705;28;20264;-62
2022/06/12 00:40:17;;;;;;;0.00;0.00;;;;;;;;;;5056001;28;20207;-63
2022/06/12 00:42:45;;;;;;;0.00;0.00;;;;;;;;;;5078408;28;20324;-63
2022/06/12 00:45:31;;;;;;;0.00;0.00;;;;;;;;;;5054991;28;20208;-64
2022/06/12 00:47:58;;;;;;;0.00;0.00;;;;;;;;;;5074931;28;20207;-63
2022/06/12 00:50:26;;;;;;;0.10;0.10;;;;;;;;;;5056883;28;20288;-64
2022/06/12 00:52:53;;;;;;;0.00;0.00;;;;;;;;;;5077051;28;20245;-64
2022/06/12 00:55:24;;;;;;;0.00;0.00;;;;;;;;;;5055861;28;20219;-64
2022/06/12 00:57:50;;;;;;;0.10;0.10;;;;;;;;;;5077070;28;20207;-64
2022/06/12 01:00:17;;;;;;;0.00;0.00;;;;;;;;;;5055852;28;20274;-62
2022/06/12 01:02:44;;;;;;;0.00;0.00;;;;;;;;;;5077969;28;20202;-62
2022/06/12 01:07:59;;;;;;;0.00;0.00;;;;;;;;;;5076302;28;20274;-62
2022/06/12 01:10:28;;;;;;;0.00;0.00;;;;;;;;;;5056531;28;20346;-61
2022/06/12 01:12:56;;;;;;;0.00;0.00;;;;;;;;;;5076255;28;20316;-62
2022/06/12 01:15:27;;;;;;;0.00;0.00;;;;;;;;;;5055559;28;20208;-62
2022/06/12 01:17:54;;;;;;;0.00;0.00;;;;;;;;;;5076557;28;20213;-62
2022/06/12 01:20:24;;;;;;;0.00;0.00;;;;;;;;;;5055538;28;20220;-61
2022/06/12 01:23:14;;;;;;;0.10;0.10;;;;;;;;;;5076822;28;20272;-61
2022/06/12 01:25:53;;;;;;;0.00;0.00;;;;;;;;;;5057886;28;20243;-61
2022/06/12 01:28:34;;;;;;;0.00;0.00;;;;;;;;;;5072947;28;20312;-62
2022/06/12 01:31:07;;;;;;;0.00;0.00;;;;;;;;;;5060637;28;20554;-61
2022/06/12 01:33:37;;;;;;;0.00;0.00;;;;;;;;;;5071275;28;20406;-61
2022/06/12 01:36:07;;;;;;;0.00;0.00;;;;;;;;;;5060495;28;20247;-61
2022/06/12 01:38:38;;;;;;;0.00;0.00;;;;;;;;;;5070870;28;20194;-61
2022/06/12 01:41:07;;;;;;;0.00;0.00;;;;;;;;;;5060603;28;20289;-62
2022/06/12 01:43:39;;;;;;;0.10;0.10;;;;;;;;;;5071090;28;20230;-61
2022/06/12 01:46:09;;;;;;;0.10;0.10;;;;;;;;;;5060475;28;20243;-61
2022/06/12 01:48:42;;;;;;;0.00;0.00;;;;;;;;;;5070724;28;20573;-61
2022/06/12 01:51:10;;;;;;;0.00;0.00;;;;;;;;;;5060860;28;20247;-61
2022/06/12 01:53:39;;;;;;;0.00;0.00;;;;;;;;;;5069861;28;20228;-61
2022/06/12 01:56:08;;;;;;;0.05;0.05;;;;;;;;;;5060195;28;20240;-62
2022/06/12 01:58:44;;;;;;;0.00;0.00;;;;;;;;;;5070402;28;20212;-61
2022/06/12 02:01:15;;;;;;;0.00;0.00;;;;;;;;;;5061005;28;20241;-61
2022/06/12 02:03:44;;;;;;;0.00;0.00;;;;;;;;;;5069678;28;20256;-62
2022/06/12 02:06:14;;;;;;;0.00;0.00;;;;;;;;;;5060596;28;20247;-63
2022/06/12 02:08:43;;;;;;;0.00;0.00;;;;;;;;;;5069278;28;20479;-61
2022/06/12 02:13:55;;;;;;;0.00;0.00;;;;;;;;;;5067333;28;20264;-61
2022/06/12 02:16:25;;;;;;;0.10;0.10;;;;;;;;;;5061730;28;20252;-62
2022/06/12 02:18:53;;;;;;;0.00;0.00;;;;;;;;;;5068718;28;20409;-63
2022/06/12 02:21:23;;;;;;;0.00;0.00;;;;;;;;;;5062230;28;20437;-61
2022/06/12 02:23:53;;;;;;;0.00;0.00;;;;;;;;;;5068197;28;20267;-62
2022/06/12 02:26:22;;;;;;;0.00;0.00;;;;;;;;;;5061196;28;20338;-61
2022/06/12 02:28:49;;;;;;;0.00;0.00;;;;;;;;;;5068860;28;20227;-61
2022/06/12 02:31:18;;;;;;;0.10;0.10;;;;;;;;;;5061614;28;20242;-61
2022/06/12 02:33:49;;;;;;;0.00;0.00;;;;;;;;;;5068662;28;20229;-63
2022/06/12 02:36:18;;;;;;;0.00;0.00;;;;;;;;;;5061186;28;20250;-62
2022/06/12 02:38:48;;;;;;;0.00;0.00;;;;;;;;;;5068336;28;20214;-62
2022/06/12 02:41:16;;;;;;;0.00;0.00;;;;;;;;;;5060255;28;20250;-61
2022/06/12 02:43:44;;;;;;;0.00;0.00;;;;;;;;;;5069702;28;20202;-62
2022/06/12 02:46:13;;;;;;;0.00;0.00;;;;;;;;;;5059441;28;20478;-62
2022/06/12 02:48:40;;;;;;;0.00;0.00;;;;;;;;;;5069430;28;20489;-61
2022/06/12 02:51:10;;;;;;;0.08;0.08;;;;;;;;;;5059934;28;20356;-62
2022/06/12 02:53:41;;;;;;;0.00;0.00;;;;;;;;;;5069547;28;20227;-62
2022/06/12 02:56:12;;;;;;;0.00;0.00;;;;;;;;;;5059547;28;20517;-61
2022/06/12 02:58:42;;;;;;;0.00;0.00;;;;;;;;;;5068845;28;20217;-62
2022/06/12 03:01:11;;;;;;;0.10;0.10;;;;;;;;;;5059807;28;20250;-61
2022/06/12 03:03:39;;;;;;;0.10;0.10;;;;;;;;;;5069053;28;20203;-62
2022/06/12 03:06:05;;;;;;;0.00;0.00;;;;;;;;;;5059503;28;20623;-60
2022/06/12 03:08:36;;;;;;;0.00;0.00;;;;;;;;;;5069728;28;20208;-60
2022/06/12 03:11:03;;;;;;;0.00;0.00;;;;;;;;;;5059528;28;20240;-62
2022/06/12 03:13:30;;;;;;;0.03;0.03;;;;;;;;;;5073977;28;20240;-62
2022/06/12 03:15:58;;;;;;;0.00;0.00;;;;;;;;;;5062491;28;20244;-63
2022/06/12 03:18:27;;;;;;;0.00;0.00;;;;;;;;;;5074731;28;20225;-62
2022/06/12 03:20:58;;;;;;;0.00;0.00;;;;;;;;;;5061981;28;20315;-62
2022/06/12 03:23:32;;;;;;;0.00;0.00;;;;;;;;;;5074463;28;20200;-60
2022/06/12 03:26:01;;;;;;;0.10;0.10;;;;;;;;;;5062411;28;20461;-62
2022/06/12 03:28:32;;;;;;;0.00;0.00;;;;;;;;;;5074083;28;20531;-61
2022/06/12 03:31:01;;;;;;;0.00;0.00;;;;;;;;;;5062589;28;20282;-61
2022/06/12 03:33:31;;;;;;;0.00;0.00;;;;;;;;;;5073573;28;20275;-62
2022/06/12 03:36:00;;;;;;;0.00;0.00;;;;;;;;;;5062228;28;20243;-63
2022/06/12 03:38:31;;;;;;;0.00;0.00;;;;;;;;;;5073868;28;20206;-61
2022/06/12 03:41:03;;;;;;;0.00;0.00;;;;;;;;;;5062237;28;20247;-63
2022/06/12 03:43:33;;;;;;;0.00;0.00;;;;;;;;;;5073649;28;20207;-61
2022/06/12 03:46:04;;;;;;;0.00;0.00;;;;;;;;;;5062145;28;20289;-61
2022/06/12 03:48:32;;;;;;;0.05;0.05;;;;;;;;;;5073168;28;20212;-61
2022/06/12 03:51:03;;;;;;;0.00;0.00;;;;;;;;;;5062400;28;20617;-62
2022/06/12 03:53:33;;;;;;;0.05;0.05;;;;;;;;;;5073269;28;20441;-61
2022/06/12 03:58:51;;;;;;;0.00;0.00;;;;;;;;;;5071018;28;20209;-61
2022/06/12 04:01:18;;;;;;;0.00;0.00;;;;;;;;;;5062633;28;20241;-62
2022/06/12 04:03:45;;;;;;;0.00;0.00;;;;;;;;;;5072168;28;20292;-62
2022/06/12 04:06:14;;;;;;;0.00;0.00;;;;;;;;;;5062482;28;20249;-62
2022/06/12 04:08:43;;;;;;;0.05;0.05;;;;;;;;;;5072290;28;20401;-62
2022/06/12 04:11:11;;;;;;;0.00;0.00;;;;;;;;;;5062181;28;20237;-65
2022/06/12 04:13:39;;;;;;;0.00;0.00;;;;;;;;;;5073048;28;20583;-63
2022/06/12 04:16:08;;;;;;;0.00;0.00;;;;;;;;;;5060966;28;20313;-64
2022/06/12 04:18:34;;;;;;;0.00;0.00;;;;;;;;;;5073225;28;20210;-64
2022/06/12 04:21:03;;;;;;;0.00;0.00;;;;;;;;;;5060831;28;20399;-63
2022/06/12 04:23:34;;;;;;;0.00;0.00;;;;;;;;;;5073324;28;20212;-64
2022/06/12 04:26:02;;;;;;;0.00;0.00;;;;;;;;;;5061949;28;20303;-64
2022/06/12 04:28:31;;;;;;;0.03;0.03;;;;;;;;;;5072884;28;20247;-63
2022/06/12 04:30:58;;;;;;;0.00;0.00;;;;;;;;;;5060585;28;20460;-64
2022/06/12 04:33:29;;;;;;;0.00;0.00;;;;;;;;;;5074729;28;20238;-64
2022/06/12 04:35:56;;;;;;;0.00;0.00;;;;;;;;;;5060228;28;20424;-64
2022/06/12 04:38:23;;;;;;;0.00;0.00;;;;;;;;;;5074238;28;20212;-64
2022/06/12 04:40:50;;;;;;;0.00;0.00;;;;;;;;;;5060075;28;20569;-63
2022/06/12 04:43:16;;;;;;;0.00;0.00;;;;;;;;;;5074060;28;20447;-64
2022/06/12 04:45:45;;;;;;;0.00;0.00;;;;;;;;;;5059275;28;20241;-65
2022/06/12 04:48:13;;;;;;;0.00;0.00;;;;;;;;;;5074694;28;20288;-64
2022/06/12 04:50:40;;;;;;;0.00;0.00;;;;;;;;;;5058745;28;20247;-63
2022/06/12 04:53:06;;;;;;;0.05;0.05;;;;;;;;;;5075234;28;20301;-64
2022/06/12 04:55:33;;;;;;;0.08;0.08;;;;;;;;;;5057646;28;20641;-66
2022/06/12 04:58:00;;;;;;;0.00;0.00;;;;;;;;;;5076076;28;20260;-63
2022/06/12 05:00:27;;;;;;;0.10;0.10;;;;;;;;;;5055774;28;20204;-63
2022/06/12 05:02:55;;;;;;;0.00;0.00;;;;;;;;;;5077753;28;20235;-63
2022/06/12 05:05:21;;;;;;;0.10;0.10;;;;;;;;;;5055786;28;20216;-64
2022/06/12 05:07:48;;;;;;;0.00;0.00;;;;;;;;;;5077858;28;20282;-65
2022/06/12 05:10:15;;;;;;;0.00;0.00;;;;;;;;;;5054924;28;20212;-65
2022/06/12 05:12:41;;;;;;;0.00;0.00;;;;;;;;;;5078244;28;20395;-64
2022/06/12 05:15:09;;;;;;;0.00;0.00;;;;;;;;;;5053787;28;20274;-63
2022/06/12 05:17:36;;;;;;;0.10;0.10;;;;;;;;;;5078895;28;20207;-63
2022/06/12 05:20:04;;;;;;;0.08;0.08;;;;;;;;;;5063683;28;20224;-63
2022/06/12 05:22:30;;;;;;;0.10;0.10;;;;;;;;;;5069273;28;20616;-65
2022/06/12 05:24:57;;;;;;;0.00;0.00;;;;;;;;;;5064029;28;20216;-64
2022/06/12 05:27:24;;;;;;;0.00;0.00;;;;;;;;;;5069128;28;20264;-64
2022/06/12 05:29:50;;;;;;;0.10;0.10;;;;;;;;;;5063813;28;20478;-65
2022/06/12 05:32:19;;;;;;;0.00;0.00;;;;;;;;;;5068933;28;20314;-64
2022/06/12 05:34:45;;;;;;;0.00;0.00;;;;;;;;;;5062757;28;20236;-64
2022/06/12 05:37:13;;;;;;;0.00;0.00;;;;;;;;;;5068688;28;20436;-64
2022/06/12 05:39:39;;;;;;;0.05;0.05;;;;;;;;;;5063610;28;20544;-65
2022/06/12 05:42:06;;;;;;;0.00;0.00;;;;;;;;;;5068267;28;20241;-65
2022/06/12 05:44:32;;;;;;;0.00;0.00;;;;;;;;;;5063514;28;20230;-65
2022/06/12 05:46:59;;;;;;;0.00;0.00;;;;;;;;;;5067751;28;20242;-65
2022/06/12 05:49:25;;;;;;;0.00;0.00;;;;;;;;;;5063933;28;20281;-65
2022/06/12 05:51:52;;;;;;;0.00;0.00;;;;;;;;;;5066860;28;20249;-65
2022/06/12 05:54:19;;;;;;;0.00;0.00;;;;;;;;;;5064953;28;20232;-66
2022/06/12 05:56:46;;;;;;;0.95;0.95;;;;;;;;;;5065178;28;20317;-66
2022/06/12 05:59:12;;;;;;;0.00;0.00;;;;;;;;;;5066006;28;20210;-64
2022/06/12 06:01:40;;;;;;;0.00;0.00;;;;;;;;;;5064674;28;20257;-65
2022/06/12 06:04:07;;;;;;;0.00;0.00;;;;;;;;;;5067081;28;20279;-65
2022/06/12 06:06:35;;;;;;;0.00;0.00;;;;;;;;;;5062887;28;20318;-65
2022/06/12 06:09:03;;;;;;;0.00;0.00;;;;;;;;;;5067799;28;20215;-66
2022/06/12 06:11:31;;;;;;;0.00;0.00;;;;;;;;;;5062130;28;20304;-64
2022/06/12 06:13:57;;;;;;;0.03;0.03;;;;;;;;;;5068467;28;20555;-66
2022/06/12 06:16:24;;;;;;;0.00;0.00;;;;;;;;;;5062700;28;20246;-64
2022/06/12 06:18:50;;;;;;;0.00;0.00;;;;;;;;;;5068553;28;20282;-64
2022/06/12 06:21:16;;;;;;;0.00;0.00;;;;;;;;;;5061830;28;20249;-65
2022/06/12 06:23:43;;;;;;;0.05;0.05;;;;;;;;;;5069587;28;20387;-64
2022/06/12 06:26:10;;;;;;;0.00;0.00;;;;;;;;;;5060977;28;20240;-65
2022/06/12 06:28:39;;;;;;;0.00;0.00;;;;;;;;;;5069542;28;20227;-65
2022/06/12 06:31:06;;;;;;;0.00;0.00;;;;;;;;;;5059703;28;20244;-65
2022/06/12 06:33:32;;;;;;;0.00;0.00;;;;;;;;;;5070540;28;20230;-65
2022/06/12 06:35:59;;;;;;;0.00;0.00;;;;;;;;;;5058955;28;20252;-63
2022/06/12 06:38:25;;;;;;;0.00;0.00;;;;;;;;;;5071057;28;20234;-65
2022/06/12 06:40:51;;;;;;;0.00;0.00;;;;;;;;;;5057755;28;20312;-64
2022/06/12 06:43:18;;;;;;;0.00;0.00;;;;;;;;;;5072048;28;20253;-65
2022/06/12 06:48:30;;;;;;;0.00;0.00;;;;;;;;;;5070887;28;20245;-66
2022/06/12 06:50:57;;;;;;;0.00;0.00;;;;;;;;;;5058539;28;20309;-65
2022/06/12 06:53:23;;;;;;;0.10;0.10;;;;;;;;;;5071339;28;20234;-67
2022/06/12 06:55:50;;;;;;;0.00;0.00;;;;;;;;;;5057273;28;20241;-65
2022/06/12 06:58:17;;;;;;;0.00;0.00;;;;;;;;;;5072465;28;20350;-64
2022/06/12 07:00:45;;;;;;;0.00;0.00;;;;;;;;;;5055942;28;20253;-64
2022/06/12 07:03:14;;;;;;;0.00;0.00;;;;;;;;;;5074063;28;20511;-65
2022/06/12 07:05:41;;;;;;;0.08;0.08;;;;;;;;;;5056213;28;20245;-65
2022/06/12 07:08:08;;;;;;;0.00;0.00;;;;;;;;;;5073501;28;20211;-65
2022/06/12 07:10:35;;;;;;;0.00;0.00;;;;;;;;;;5055428;28;20239;-65
2022/06/12 07:13:02;;;;;;;0.00;0.00;;;;;;;;;;5073470;28;20241;-66
2022/06/12 07:15:29;;;;;;;0.00;0.00;;;;;;;;;;5054813;28;20249;-65
2022/06/12 07:17:56;;;;;;;0.10;0.10;;;;;;;;;;5075044;28;20207;-67
2022/06/12 07:20:26;;;;;;;0.00;0.00;;;;;;;;;;5053810;28;20222;-64
2022/06/12 07:22:52;;;;;;;0.00;0.00;;;;;;;;;;5075383;28;20521;-65
2022/06/12 07:25:19;;;;;;;0.00;0.00;;;;;;;;;;5053237;28;20483;-65
2022/06/12 07:27:46;;;;;;;0.10;0.10;;;;;;;;;;5075935;28;20407;-64
2022/06/12 07:30:14;;;;;;;0.00;0.00;;;;;;;;;;5052739;28;20204;-65
2022/06/12 07:32:41;;;;;;;0.00;0.00;;;;;;;;;;5076654;28;20207;-64
2022/06/12 07:35:08;;;;;;;0.00;0.00;;;;;;;;;;5052126;28;20498;-64
2022/06/12 07:37:36;;;;;;;0.00;0.00;;;;;;;;;;5076775;28;20237;-65
2022/06/12 07:40:03;;;;;;;0.00;0.00;;;;;;;;;;5061914;28;20213;-66
2022/06/12 07:42:30;;;;;;;0.00;0.00;;;;;;;;;;5034048;28;20217;-65
2022/06/12 07:44:56;;;;;;;0.00;0.00;;;;;;;;;;5062195;28;20286;-64
2022/06/12 07:47:24;;;;;;;0.00;0.00;;;;;;;;;;5067269;28;20265;-64
2022/06/12 07:49:50;;;;;;;0.00;0.00;;;;;;;;;;5061827;28;20214;-65
2022/06/12 07:52:17;;;;;;;0.10;0.10;;;;;;;;;;5067106;28;20318;-65
2022/06/12 07:54:45;;;;;;;0.10;0.10;;;;;;;;;;5061651;28;20235;-66
2022/06/12 07:57:11;;;;;;;0.00;0.00;;;;;;;;;;5066626;28;20246;-65
2022/06/12 07:59:38;;;;;;;0.10;0.10;;;;;;;;;;5065793;28;20278;-65
2022/06/12 08:02:05;;;;;;;0.00;0.00;;;;;;;;;;5069095;28;20617;-65
2022/06/12 08:04:31;;;;;;;0.00;0.00;;;;;;;;;;5066532;28;20278;-66
2022/06/12 08:06:58;;;;;;;0.00;0.00;;;;;;;;;;5068125;28;20250;-66
2022/06/12 08:09:24;;;;;;;0.10;0.10;;;;;;;;;;5067400;28;20207;-66
2022/06/12 08:11:52;;;;;;;0.03;0.03;;;;;;;;;;5067178;28;20589;-65
2022/06/12 08:14:20;;;;;;;0.00;0.00;;;;;;;;;;5067877;28;20295;-65
2022/06/12 08:16:46;;;;;;;0.00;0.00;;;;;;;;;;5068136;28;20261;-65
2022/06/12 08:21:59;;;;;;;0.00;0.00;;;;;;;;;;5068172;28;20297;-63
2022/06/12 08:24:25;;;;;;;0.00;0.00;;;;;;;;;;5066424;28;20210;-65
2022/06/12 08:26:54;;;;;;;0.00;0.00;;;;;;;;;;5068177;28;20317;-65
2022/06/12 08:29:20;;;;;;;0.00;0.00;;;;;;;;;;5065560;28;20207;-63
2022/06/12 08:31:48;;;;;;;0.00;0.00;;;;;;;;;;5067406;28;20246;-64
2022/06/12 08:34:20;;;;;;;0.00;0.00;;;;;;;;;;5066875;28;20290;-64
2022/06/12 08:36:47;;;;;;;0.00;0.00;;;;;;;;;;5067582;28;20249;-64
2022/06/12 08:39:13;;;;;;;0.00;0.00;;;;;;;;;;5066549;28;20208;-63
2022/06/12 08:41:41;;;;;;;0.00;0.00;;;;;;;;;;5066379;28;20309;-63
2022/06/12 08:44:13;;;;;;;0.00;0.00;;;;;;;;;;5067176;28;20222;-65
2022/06/12 08:46:43;;;;;;;0.03;0.03;;;;;;;;;;5065755;28;20239;-64
2022/06/12 08:49:11;;;;;;;0.00;0.00;;;;;;;;;;5067436;28;20261;-64
2022/06/12 08:51:41;;;;;;;0.00;0.00;;;;;;;;;;5065462;28;20247;-65
2022/06/12 08:54:11;;;;;;;0.00;0.00;;;;;;;;;;5067718;28;20416;-66
2022/06/12 08:56:40;;;;;;;0.00;0.00;;;;;;;;;;5065858;28;20239;-66
2022/06/12 08:59:10;;;;;;;0.00;0.00;;;;;;;;;;5067289;28;20483;-67
2022/06/12 09:01:41;;;;;;;0.00;0.00;;;;;;;;;;5065443;28;20306;-67
2022/06/12 09:04:09;;;;;;;0.00;0.00;;;;;;;;;;5066916;28;20192;-67
2022/06/12 09:06:40;;;;;;;0.00;0.00;;;;;;;;;;5065229;28;20259;-67
2022/06/12 09:09:10;;;;;;;0.00;0.00;;;;;;;;;;5066888;28;20192;-67
2022/06/12 09:11:38;;;;;;;0.00;0.00;;;;;;;;;;5065643;28;20249;-67
2022/06/12 09:14:09;;;;;;;0.00;0.00;;;;;;;;;;5067145;28;20206;-65
2022/06/12 09:16:41;;;;;;;0.00;0.00;;;;;;;;;;5065218;28;20571;-66
2022/06/12 09:19:11;;;;;;;0.00;0.00;;;;;;;;;;5067707;28;20406;-66
2022/06/12 09:21:42;;;;;;;0.00;0.00;;;;;;;;;;5064262;28;20235;-71
2022/06/12 09:24:18;;;;;;;0.00;0.00;;;;;;;;;;5067960;28;20442;-73
2022/06/12 09:26:49;;;;;;;0.00;0.00;;;;;;;;;;5066658;28;20554;-69
2022/06/12 09:29:21;;;;;;;0.00;0.00;;;;;;;;;;5065813;28;20263;-68
2022/06/12 09:31:50;;;;;;;0.00;0.00;;;;;;;;;;5066641;28;20310;-68
2022/06/12 09:34:25;;;;;;;0.00;0.00;;;;;;;;;;5065615;28;20224;-66
2022/06/12 09:36:56;;;;;;;0.00;0.00;;;;;;;;;;5067391;28;20246;-68
2022/06/12 09:39:31;;;;;;;0.00;0.00;;;;;;;;;;5064842;28;20476;-66
2022/06/12 09:42:03;;;;;;;0.00;0.00;;;;;;;;;;5067415;28;20354;-68
2022/06/12 09:44:33;;;;;;;0.00;0.00;;;;;;;;;;5062811;28;20188;-67
2022/06/12 09:47:09;;;;;;;0.00;0.00;;;;;;;;;;5067426;28;20304;-70
2022/06/12 09:49:41;;;;;;;0.00;0.00;;;;;;;;;;5062881;28;20192;-66
2022/06/12 09:52:20;;;;;;;0.00;0.00;;;;;;;;;;5067599;28;20361;-68
2022/06/12 09:54:50;;;;;;;0.00;0.00;;;;;;;;;;5062703;28;20336;-66
2022/06/12 09:57:23;;;;;;;0.05;0.05;;;;;;;;;;5068101;28;20238;-65
2022/06/12 09:59:53;;;;;;;0.00;0.00;;;;;;;;;;5062816;28;20192;-66
2022/06/12 10:02:23;;;;;;;0.00;0.00;;;;;;;;;;5068206;28;20304;-67
2022/06/12 10:04:56;;;;;;;0.00;0.00;;;;;;;;;;5062997;28;20499;-72
2022/06/12 10:07:25;;;;;;;0.00;0.00;;;;;;;;;;5068277;28;20364;-71
2022/06/12 10:09:54;;;;;;;0.00;0.00;;;;;;;;;;5063370;28;20378;-72
2022/06/12 10:12:24;;;;;;;0.00;0.00;;;;;;;;;;5068044;28;20551;-73
2022/06/12 10:14:52;;;;;;;0.00;0.00;;;;;;;;;;5062841;28;20299;-70
2022/06/12 10:17:21;;;;;;;0.00;0.00;;;;;;;;;;5068194;28;20273;-67
2022/06/12 10:19:50;;;;;;;0.00;0.00;;;;;;;;;;5062606;28;20212;-63
2022/06/12 10:22:22;;;;;;;0.00;0.00;;;;;;;;;;5067787;28;20250;-63
2022/06/12 10:24:49;;;;;;;0.00;0.00;;;;;;;;;;5062455;28;20188;-62
2022/06/12 10:27:16;;;;;;;0.00;0.00;;;;;;;;;;5067841;28;20239;-64
2022/06/12 10:29:45;;;;;;;0.00;0.00;;;;;;;;;;5062758;28;20203;-61
2022/06/12 10:32:16;;;;;;;0.00;0.00;;;;;;;;;;5067962;28;20266;-61
2022/06/12 10:34:42;;;;;;;0.00;0.00;;;;;;;;;;5062865;28;20255;-61
2022/06/12 10:37:10;;;;;;;0.00;0.00;;;;;;;;;;5068220;28;20239;-61
2022/06/12 10:39:40;;;;;;;0.00;0.00;;;;;;;;;;5062778;28;20204;-62
2022/06/12 10:42:08;;;;;;;0.00;0.00;;;;;;;;;;5067995;28;20259;-63
2022/06/12 10:44:39;;;;;;;0.00;0.00;;;;;;;;;;5062726;28;20491;-64
2022/06/12 10:47:17;;;;;;;0.00;0.00;;;;;;;;;;5067812;28;20297;-65
2022/06/12 10:49:44;;;;;;;0.00;0.00;;;;;;;;;;5062134;28;20270;-67
2022/06/12 10:52:15;;;;;;;0.00;0.00;;;;;;;;;;5067290;28;20250;-65
2022/06/12 10:54:43;;;;;;;0.00;0.00;;;;;;;;;;5061928;28;20232;-65
2022/06/12 10:57:17;;;;;;;0.00;0.00;;;;;;;;;;5067555;28;20276;-65
2022/06/12 10:59:48;;;;;;;0.00;0.00;;;;;;;;;;5062117;28;20263;-66
2022/06/12 11:02:36;;;;;;;0.00;0.00;;;;;;;;;;5067337;28;20438;-65
2022/06/12 11:05:17;;;;;;;0.00;0.00;;;;;;;;;;5061880;28;20192;-65
2022/06/12 11:10:31;;;;;;;0.03;0.03;;;;;;;;;;5037355;28;20247;-64
2022/06/12 11:13:06;;;;;;;0.00;0.00;;;;;;;;;;5074174;28;20208;-64
2022/06/12 11:15:44;;;;;;;0.00;0.00;;;;;;;;;;5055295;28;20246;-63
2022/06/12 11:18:17;;;;;;;0.00;0.00;;;;;;;;;;5072473;28;20203;-65
2022/06/12 11:20:47;;;;;;;0.00;0.00;;;;;;;;;;5057047;28;20512;-64
2022/06/12 11:23:26;;;;;;;0.00;0.00;;;;;;;;;;5071766;28;20208;-64
2022/06/12 11:26:02;;;;;;;0.00;0.00;;;;;;;;;;5057668;28;20284;-62
2022/06/12 11:28:36;;;;;;;0.00;0.00;;;;;;;;;;5070226;28;20298;-63
2022/06/12 11:31:06;;;;;;;0.00;0.00;;;;;;;;;;5058723;28;20243;-63
2022/06/12 11:33:40;;;;;;;0.00;0.00;;;;;;;;;;5072791;28;20192;-64
2022/06/12 11:36:10;;;;;;;0.00;0.00;;;;;;;;;;5063692;28;20250;-62
2022/06/12 11:38:42;;;;;;;0.00;0.00;;;;;;;;;;5072833;28;20196;-63
2022/06/12 11:41:15;;;;;;;0.00;0.00;;;;;;;;;;5063334;28;20239;-62
2022/06/12 11:43:43;;;;;;;0.00;0.00;;;;;;;;;;5072637;28;20246;-64
2022/06/12 11:46:21;;;;;;;0.00;0.00;;;;;;;;;;5063720;28;20255;-63
2022/06/12 11:48:59;;;;;;;0.00;0.00;;;;;;;;;;5070990;28;20230;-66
2022/06/12 11:51:30;;;;;;;0.00;0.00;;;;;;;;;;5065985;28;20283;-65
2022/06/12 11:54:01;;;;;;;0.00;0.00;;;;;;;;;;5069812;28;20200;-67
2022/06/12 11:56:33;;;;;;;0.00;0.00;;;;;;;;;;5065603;28;20650;-72
2022/06/12 11:59:10;;;;;;;0.00;0.00;;;;;;;;;;5069860;28;20260;-71
2022/06/12 12:01:40;;;;;;;0.00;0.00;;;;;;;;;;5066752;28;20258;-72
2022/06/12 12:04:13;;;;;;;0.00;0.00;;;;;;;;;;5068902;28;20267;-73
2022/06/12 12:06:47;;;;;;;0.00;0.00;;;;;;;;;;5067156;28;20542;-69
2022/06/12 12:09:20;;;;;;;0.00;0.00;;;;;;;;;;5067406;28;20535;-71
2022/06/12 12:11:49;;;;;;;0.00;0.00;;;;;;;;;;5068408;28;20562;-70
2022/06/12 12:14:18;;;;;;;0.00;0.00;;;;;;;;;;5067119;28;20204;-72
2022/06/12 12:16:48;;;;;;;0.00;0.00;;;;;;;;;;5067263;28;20477;-69
2022/06/12 12:19:17;;;;;;;0.00;0.00;;;;;;;;;;5067140;28;20219;-71
2022/06/12 12:21:48;;;;;;;0.00;0.00;;;;;;;;;;5066834;28;20239;-70
2022/06/12 12:24:17;;;;;;;0.00;0.00;;;;;;;;;;5068533;28;20515;-71
2022/06/12 12:26:43;;;;;;;0.00;0.00;;;;;;;;;;5067582;28;20270;-72
2022/06/12 12:29:13;;;;;;;0.00;0.00;;;;;;;;;;5067904;28;20247;-70
2022/06/12 12:31:39;;;;;;;0.00;0.00;;;;;;;;;;5066597;28;20254;-70
2022/06/12 12:34:07;;;;;;;0.00;0.00;;;;;;;;;;5067712;28;20204;-70
2022/06/12 12:42:07;;;;;;;0.00;0.00;;;;;;;;;;5069931;28;20281;-71
2022/06/12 12:44:36;;;;;;;0.00;0.00;;;;;;;;;;5063929;28;20204;-69
2022/06/12 12:47:03;;;;;;;0.00;0.00;;;;;;;;;;5068363;28;20298;-69
2022/06/12 12:49:32;;;;;;;0.00;0.00;;;;;;;;;;5065304;28;20275;-72
2022/06/12 12:52:09;;;;;;;0.00;0.00;;;;;;;;;;5068592;28;20365;-70
2022/06/12 12:54:50;;;;;;;0.00;0.00;;;;;;;;;;5064393;28;20204;-71
2022/06/12 12:57:16;;;;;;;0.00;0.00;;;;;;;;;;5069291;28;20239;-69
2022/06/12 12:59:45;;;;;;;0.00;0.00;;;;;;;;;;5064025;28;20278;-70
2022/06/12 13:02:23;;;;;;;0.00;0.00;;;;;;;;;;5069466;28;20315;-71
2022/06/12 13:04:51;;;;;;;0.00;0.00;;;;;;;;;;5063948;28;20204;-71
2022/06/12 13:07:21;;;;;;;0.00;0.00;;;;;;;;;;5069447;28;20457;-69
2022/06/12 13:09:58;;;;;;;0.00;0.00;;;;;;;;;;5063894;28;20271;-70
2022/06/12 13:12:29;;;;;;;0.00;0.00;;;;;;;;;;5069347;28;20434;-70
2022/06/12 13:15:03;;;;;;;0.00;0.00;;;;;;;;;;5064100;28;20480;-71
2022/06/12 13:17:35;;;;;;;0.00;0.00;;;;;;;;;;5069401;28;20550;-71
2022/06/12 13:20:08;;;;;;;0.00;0.00;;;;;;;;;;5063647;28;20210;-71
2022/06/12 13:22:44;;;;;;;0.00;0.00;;;;;;;;;;5035758;28;20310;-72
2022/06/12 13:25:13;;;;;;;0.00;0.00;;;;;;;;;;5054143;28;20192;-70
2022/06/12 13:27:48;;;;;;;0.00;0.00;;;;;;;;;;5077993;28;20278;-72
2022/06/12 13:30:17;;;;;;;0.00;0.00;;;;;;;;;;5054726;28;20416;-71
2022/06/12 13:32:43;;;;;;;0.00;0.00;;;;;;;;;;5077203;28;20246;-70
2022/06/12 13:35:18;;;;;;;0.00;0.00;;;;;;;;;;5054013;28;20276;-69
2022/06/12 13:37:45;;;;;;;0.00;0.00;;;;;;;;;;5076929;28;20213;-69
2022/06/12 13:40:22;;;;;;;0.00;0.00;;;;;;;;;;5054213;28;20487;-70
2022/06/12 13:42:49;;;;;;;0.00;0.00;;;;;;;;;;5076546;28;20389;-69
2022/06/12 13:45:18;;;;;;;0.00;0.00;;;;;;;;;;5054392;28;20204;-70
2022/06/12 13:47:44;;;;;;;0.00;0.00;;;;;;;;;;5076961;28;20235;-71
2022/06/12 13:50:18;;;;;;;0.00;0.00;;;;;;;;;;5053783;28;20231;-72
2022/06/12 13:52:49;;;;;;;0.10;0.10;;;;;;;;;;5076888;28;20292;-73
2022/06/12 13:55:23;;;;;;;0.00;0.00;;;;;;;;;;5053729;28;20216;-72
2022/06/12 13:57:52;;;;;;;0.00;0.00;;;;;;;;;;5076108;28;20547;-73
2022/06/12 14:00:27;;;;;;;0.00;0.00;;;;;;;;;;5054672;28;20507;-71
2022/06/12 14:02:54;;;;;;;0.00;0.00;;;;;;;;;;5075706;28;20235;-74
2022/06/12 14:05:22;;;;;;;0.00;0.00;;;;;;;;;;5055085;28;20204;-72
2022/06/12 14:07:50;;;;;;;0.00;0.00;;;;;;;;;;5075803;28;20211;-73
2022/06/12 14:10:18;;;;;;;0.00;0.00;;;;;;;;;;5053750;28;20533;-71
2022/06/12 14:12:45;;;;;;;0.00;0.00;;;;;;;;;;5076504;28;20231;-72
2022/06/12 14:15:29;;;;;;;0.00;0.00;;;;;;;;;;5053637;28;20211;-71
2022/06/12 14:17:57;;;;;;;0.00;0.00;;;;;;;;;;5074834;28;20275;-71
2022/06/12 14:20:25;;;;;;;0.00;0.00;;;;;;;;;;5054320;28;20327;-71
2022/06/12 14:22:53;;;;;;;0.00;0.00;;;;;;;;;;5075379;28;20204;-73
2022/06/12 14:25:23;;;;;;;0.00;0.00;;;;;;;;;;5054433;28;20406;-69
2022/06/12 14:27:57;;;;;;;0.03;0.03;;;;;;;;;;5075687;28;20477;-71
2022/06/12 14:30:41;;;;;;;0.00;0.00;;;;;;;;;;5054567;28;20235;-71
2022/06/12 14:33:25;;;;;;;0.00;0.00;;;;;;;;;;5073010;28;20215;-71
2022/06/12 14:35:51;;;;;;;0.00;0.00;;;;;;;;;;5058285;28;20258;-71
2022/06/12 14:38:19;;;;;;;0.00;0.00;;;;;;;;;;5071834;28;20302;-72
2022/06/12 14:40:46;;;;;;;0.00;0.00;;;;;;;;;;5057373;28;20239;-71
2022/06/12 14:43:14;;;;;;;0.08;0.08;;;;;;;;;;5072200;28;20230;-70
2022/06/12 14:45:43;;;;;;;0.00;0.00;;;;;;;;;;5056816;28;20322;-68
2022/06/12 14:48:12;;;;;;;0.00;0.00;;;;;;;;;;5072841;28;20402;-70
2022/06/12 14:50:38;;;;;;;0.00;0.00;;;;;;;;;;5056061;28;20245;-69
2022/06/12 14:53:05;;;;;;;0.00;0.00;;;;;;;;;;5073098;28;20208;-71
2022/06/12 14:55:31;;;;;;;0.00;0.00;;;;;;;;;;5055140;28;20239;-71
2022/06/12 14:57:58;;;;;;;0.00;0.00;;;;;;;;;;5073899;28;20292;-66
2022/06/12 15:00:25;;;;;;;0.00;0.00;;;;;;;;;;5054172;28;20430;-70
2022/06/12 15:02:53;;;;;;;0.00;0.00;;;;;;;;;;5074791;28;20265;-70
2022/06/12 15:05:22;;;;;;;0.00;0.00;;;;;;;;;;5053866;28;20275;-71
2022/06/12 15:07:48;;;;;;;0.00;0.00;;;;;;;;;;5076224;28;20207;-69
2022/06/12 15:10:15;;;;;;;0.00;0.00;;;;;;;;;;5057051;28;20354;-69
2022/06/12 15:12:41;;;;;;;0.00;0.00;;;;;;;;;;5080351;28;20215;-68
2022/06/12 15:15:10;;;;;;;0.00;0.00;;;;;;;;;;5056076;28;20379;-69
2022/06/12 15:17:37;;;;;;;0.00;0.00;;;;;;;;;;5081053;28;20460;-69